Time;durP1;ratioP1;P1;durP2;ratioP2;P2;SDS_P1;SDS_P2;PMS_P1;PMS_P2;Temp;Humidity;BMP_temperature;BMP_pressure;BME280_temperature;BME280_humidity;BME280_pressure;Samples;Min_cycle;Max_cycle;Signal;HPM_P1;HPM_P2
2022/08/20 00:02:25;;;;;;;10.45;7.03;;;20.80;99.90;21.00;100244.00;;;;4966904;28;107732;-62
2022/08/20 00:04:51;;;;;;;9.15;6.60;;;20.80;99.90;21.00;100231.00;;;;4943881;28;93962;-65
2022/08/20 00:07:17;;;;;;;9.35;7.32;;;20.80;99.90;21.00;100230.00;;;;4940428;28;124489;-65
2022/08/20 00:09:43;;;;;;;16.90;8.77;;;20.80;99.90;21.00;100238.00;;;;4939016;28;111712;-65
2022/08/20 00:12:12;;;;;;;15.13;8.25;;;20.80;99.90;20.90;100233.00;;;;4936763;28;93189;-64
2022/08/20 00:14:38;;;;;;;9.02;6.30;;;20.80;99.90;20.90;100226.00;;;;4945753;28;93384;-64
2022/08/20 00:17:05;;;;;;;8.48;6.78;;;20.80;99.90;20.90;100226.00;;;;4948196;28;93198;-64
2022/08/20 00:19:31;;;;;;;8.82;7.45;;;20.80;99.90;20.90;100224.00;;;;4938592;28;92864;-64
2022/08/20 00:21:56;;;;;;;11.52;8.20;;;20.70;99.90;20.90;100224.00;;;;4940816;28;99036;-64
2022/08/20 00:24:22;;;;;;;12.95;7.82;;;20.80;99.90;20.90;100226.00;;;;4949000;28;92479;-65
2022/08/20 00:26:51;;;;;;;11.23;8.32;;;20.90;99.90;20.90;100216.00;;;;4948870;28;93137;-65
2022/08/20 00:29:16;;;;;;;12.43;7.45;;;20.70;99.90;20.90;100209.00;;;;4943369;28;92619;-65
2022/08/20 00:31:42;;;;;;;12.93;8.23;;;20.80;99.90;20.90;100206.00;;;;4947356;28;108396;-65
2022/08/20 00:34:08;;;;;;;13.25;8.48;;;20.70;99.90;20.90;100209.00;;;;4943909;28;121692;-65
2022/08/20 00:36:33;;;;;;;9.73;7.22;;;20.80;99.90;21.00;100220.00;;;;4941423;28;100069;-65
2022/08/20 00:39:00;;;;;;;10.43;7.85;;;20.80;99.90;21.00;100223.00;;;;4941886;28;110025;-65
2022/08/20 00:41:27;;;;;;;13.05;8.02;;;20.80;99.90;21.00;100230.00;;;;4938399;28;93144;-64
2022/08/20 00:44:20;;;;;;;9.20;7.40;;;20.80;99.90;20.90;100227.00;;;;4944451;28;108144;-65
2022/08/20 00:46:48;;;;;;;10.88;7.93;;;20.80;99.90;20.90;100222.00;;;;4944092;28;93588;-65
2022/08/20 00:49:28;;;;;;;13.50;8.32;;;20.80;99.90;20.90;100220.00;;;;4942689;28;92346;-65
2022/08/20 00:52:09;;;;;;;11.23;7.72;;;20.80;99.90;20.90;100226.00;;;;4942512;28;92746;-65
2022/08/20 00:54:46;;;;;;;14.88;8.40;;;20.70;99.90;20.90;100221.00;;;;4945898;28;111954;-65
2022/08/20 00:57:42;;;;;;;14.65;8.88;;;20.70;99.90;20.90;100226.00;;;;4940673;28;93588;-66
2022/08/20 01:00:18;;;;;;;8.90;7.35;;;20.70;99.90;20.90;100231.00;;;;4958633;28;92826;-65
2022/08/20 01:02:46;;;;;;;11.75;7.22;;;20.70;99.90;20.90;100224.00;;;;4940239;28;92862;-65
2022/08/20 01:05:13;;;;;;;10.43;7.78;;;20.70;99.90;20.90;100229.00;;;;4937925;28;93330;-65
2022/08/20 01:07:40;;;;;;;11.20;8.15;;;20.70;99.90;20.90;100227.00;;;;4944544;28;93172;-65
2022/08/20 01:10:15;;;;;;;9.77;7.57;;;20.70;99.90;20.90;100239.00;;;;4953598;28;93125;-66
2022/08/20 01:12:45;;;;;;;11.35;7.80;;;20.70;99.90;20.90;100239.00;;;;4943039;28;93023;-65
2022/08/20 01:15:16;;;;;;;8.45;7.65;;;20.70;99.90;20.90;100234.00;;;;4944932;28;93653;-65
2022/08/20 01:17:48;;;;;;;15.43;9.48;;;20.70;99.90;20.90;100240.00;;;;4936887;28;93120;-66
2022/08/20 01:20:21;;;;;;;12.57;8.88;;;20.70;99.90;20.90;100242.00;;;;4935544;28;92946;-66
2022/08/20 01:23:33;;;;;;;11.15;8.15;;;20.70;99.90;20.90;100245.00;;;;4947841;28;94125;-66
2022/08/20 01:26:10;;;;;;;10.35;7.97;;;20.70;99.90;20.90;100231.00;;;;4962931;28;93921;-66
2022/08/20 01:28:43;;;;;;;13.02;8.00;;;20.70;99.90;20.90;100228.00;;;;4943052;28;93415;-65
2022/08/20 01:31:21;;;;;;;7.43;6.60;;;20.70;99.90;20.80;100233.00;;;;4939507;28;92927;-65
2022/08/20 01:33:48;;;;;;;14.05;9.52;;;20.70;99.90;20.90;100222.00;;;;4942695;28;92982;-65
2022/08/20 01:36:16;;;;;;;9.57;7.85;;;20.70;99.90;20.90;100230.00;;;;4941142;28;105433;-65
2022/08/20 01:38:43;;;;;;;10.82;7.22;;;20.70;99.90;20.90;100230.00;;;;4948521;28;93994;-65
2022/08/20 01:41:37;;;;;;;7.68;6.75;;;20.70;99.90;20.80;100233.00;;;;4947286;28;92340;-64
2022/08/20 01:44:04;;;;;;;9.77;7.93;;;20.70;99.90;20.80;100233.00;;;;4960497;28;101530;-64
2022/08/20 01:46:37;;;;;;;11.13;8.68;;;20.60;99.90;20.80;100242.00;;;;4948202;28;93281;-65
2022/08/20 01:49:19;;;;;;;9.38;7.75;;;20.60;99.90;20.70;100236.00;;;;4946934;28;105861;-65
2022/08/20 01:51:45;;;;;;;16.65;9.10;;;20.60;99.90;20.70;100236.00;;;;4958369;28;93171;-65
2022/08/20 01:54:12;;;;;;;9.95;7.57;;;20.60;99.90;20.70;100240.00;;;;4941769;28;97554;-65
2022/08/20 01:57:10;;;;;;;8.93;7.82;;;20.50;99.90;20.60;100240.00;;;;4938036;28;93030;-64
2022/08/20 01:59:37;;;;;;;10.70;7.97;;;20.50;99.90;20.60;100243.00;;;;4942643;28;95122;-64
2022/08/20 02:02:04;;;;;;;13.20;8.80;;;20.50;99.90;20.60;100241.00;;;;4946566;28;97922;-64
2022/08/20 02:04:30;;;;;;;13.23;8.80;;;20.50;99.90;20.60;100246.00;;;;4939695;28;92974;-64
2022/08/20 02:07:00;;;;;;;20.80;8.48;;;20.40;99.90;20.60;100238.00;;;;4943501;28;93113;-64
2022/08/20 02:09:29;;;;;;;10.20;7.20;;;20.40;99.90;20.60;100244.00;;;;4946311;28;93064;-64
2022/08/20 02:11:56;;;;;;;15.98;8.65;;;20.40;99.90;20.60;100240.00;;;;4939833;28;92902;-64
2022/08/20 02:14:22;;;;;;;13.40;9.38;;;20.40;99.90;20.50;100235.00;;;;4945671;28;93757;-65
2022/08/20 02:16:49;;;;;;;14.18;8.32;;;20.40;99.90;20.50;100238.00;;;;4943916;28;93897;-65
2022/08/20 02:19:23;;;;;;;9.68;8.45;;;20.30;99.90;20.50;100245.00;;;;4941623;28;93678;-65
2022/08/20 02:21:57;;;;;;;18.73;10.30;;;20.30;99.90;20.50;100237.00;;;;4945078;28;93004;-64
2022/08/20 02:24:23;;;;;;;11.98;7.53;;;20.30;99.90;20.50;100243.00;;;;4964156;28;92844;-65
2022/08/20 02:26:50;;;;;;;10.32;7.22;;;20.30;99.90;20.50;100248.00;;;;4942590;28;116101;-64
2022/08/20 02:29:16;;;;;;;8.48;7.40;;;20.30;99.90;20.40;100243.00;;;;4942283;28;113853;-65
2022/08/20 02:31:44;;;;;;;12.65;9.90;;;20.30;99.90;20.40;100237.00;;;;4950718;28;92175;-64
2022/08/20 02:34:13;;;;;;;11.68;8.85;;;20.30;99.90;20.40;100237.00;;;;4972982;28;92907;-65
2022/08/20 02:36:41;;;;;;;10.48;8.88;;;20.30;99.90;20.40;100238.00;;;;4960582;28;102494;-65
2022/08/20 02:39:10;;;;;;;13.68;8.55;;;20.30;99.90;20.40;100240.00;;;;4949239;28;111519;-65
2022/08/20 02:41:38;;;;;;;9.20;7.72;;;20.20;99.90;20.40;100239.00;;;;4939270;28;92823;-65
2022/08/20 02:44:05;;;;;;;14.43;9.32;;;20.30;99.90;20.40;100238.00;;;;4942232;28;92839;-64
2022/08/20 02:46:32;;;;;;;11.40;9.48;;;20.20;99.90;20.40;100239.00;;;;4938484;28;94145;-64
2022/08/20 02:48:58;;;;;;;14.45;8.73;;;20.30;99.90;20.40;100245.00;;;;4942608;28;105055;-64
2022/08/20 02:51:25;;;;;;;12.27;8.63;;;20.30;99.90;20.40;100245.00;;;;4943202;28;96264;-65
2022/08/20 02:53:51;;;;;;;12.18;9.77;;;20.30;99.90;20.40;100241.00;;;;4949863;28;97689;-64
2022/08/20 02:56:18;;;;;;;11.30;8.27;;;20.30;99.90;20.50;100243.00;;;;4941539;28;122662;-64
2022/08/20 02:58:44;;;;;;;11.23;9.65;;;20.30;99.90;20.50;100236.00;;;;4944908;28;92916;-65
2022/08/20 03:01:14;;;;;;;12.02;8.20;;;20.30;99.90;20.50;100232.00;;;;4947121;28;101245;-65
2022/08/20 03:03:42;;;;;;;12.38;9.27;;;20.30;99.90;20.50;100243.00;;;;4939856;28;93835;-64
2022/08/20 03:06:10;;;;;;;16.17;9.68;;;20.30;99.90;20.50;100238.00;;;;4943048;28;94259;-65
2022/08/20 03:08:36;;;;;;;14.75;10.35;;;20.30;99.90;20.50;100232.00;;;;4942227;28;93379;-65
2022/08/20 03:11:04;;;;;;;8.68;7.63;;;20.30;99.90;20.50;100225.00;;;;4936493;28;101905;-65
2022/08/20 03:13:30;;;;;;;10.43;8.57;;;20.30;99.90;20.50;100215.00;;;;4942829;28;92966;-65
2022/08/20 03:15:59;;;;;;;10.73;7.60;;;20.30;99.90;20.50;100219.00;;;;4948646;28;93120;-65
2022/08/20 03:18:36;;;;;;;15.70;9.35;;;20.30;99.90;20.50;100228.00;;;;4940237;28;101601;-65
2022/08/20 03:21:04;;;;;;;13.98;8.65;;;20.30;99.90;20.50;100214.00;;;;4943043;28;92356;-65
2022/08/20 03:23:31;;;;;;;11.80;8.40;;;20.30;99.90;20.50;100207.00;;;;4950280;28;92894;-65
2022/08/20 03:25:57;;;;;;;11.65;9.18;;;20.30;99.90;20.50;100205.00;;;;4948491;28;93286;-65
2022/08/20 03:28:23;;;;;;;14.02;10.05;;;20.30;99.90;20.50;100205.00;;;;4943314;28;97926;-63
2022/08/20 03:30:50;;;;;;;8.93;7.32;;;20.30;99.90;20.50;100195.00;;;;4948807;28;92753;-65
2022/08/20 03:33:18;;;;;;;17.15;9.02;;;20.30;99.90;20.50;100204.00;;;;4939954;28;92991;-65
2022/08/20 03:35:45;;;;;;;15.63;8.70;;;20.30;99.90;20.40;100206.00;;;;4943095;28;92782;-65
2022/08/20 03:38:14;;;;;;;11.48;8.02;;;20.30;99.90;20.40;100208.00;;;;4938134;28;112875;-65
2022/08/20 03:40:41;;;;;;;15.45;8.30;;;20.30;99.90;20.40;100198.00;;;;4936629;28;92924;-65
2022/08/20 03:43:08;;;;;;;13.35;8.02;;;20.30;99.90;20.40;100203.00;;;;4940638;28;98242;-64
2022/08/20 03:45:37;;;;;;;15.27;8.57;;;20.30;99.90;20.40;100201.00;;;;4935928;28;93324;-64
2022/08/20 03:48:06;;;;;;;14.95;8.85;;;20.20;99.90;20.40;100213.00;;;;4943018;28;93066;-65
2022/08/20 03:50:33;;;;;;;13.18;8.88;;;20.20;99.90;20.40;100209.00;;;;4946663;28;92818;-65
2022/08/20 03:53:00;;;;;;;13.10;9.13;;;20.20;99.90;20.40;100213.00;;;;4937416;28;93666;-64
2022/08/20 03:55:29;;;;;;;10.38;8.48;;;20.20;99.90;20.30;100215.00;;;;4939535;28;94144;-65
2022/08/20 03:58:00;;;;;;;14.30;9.73;;;20.20;99.90;20.30;100212.00;;;;4944791;28;104076;-65
2022/08/20 04:00:42;;;;;;;12.50;8.02;;;20.20;99.90;20.40;100216.00;;;;4946953;28;92758;-65
2022/08/20 04:03:09;;;;;;;11.90;8.73;;;20.20;99.90;20.40;100214.00;;;;4940038;28;93159;-65
2022/08/20 04:05:39;;;;;;;11.13;8.30;;;20.20;99.90;20.40;100210.00;;;;4944313;28;122561;-65
2022/08/20 04:08:31;;;;;;;9.93;7.72;;;20.20;99.90;20.40;100216.00;;;;4949243;28;93717;-65
2022/08/20 04:10:58;;;;;;;11.93;8.35;;;20.20;99.90;20.40;100225.00;;;;4941023;28;92212;-65
2022/08/20 04:13:26;;;;;;;13.18;7.80;;;20.20;99.90;20.40;100225.00;;;;4969103;28;93477;-64
2022/08/20 04:15:54;;;;;;;11.30;9.00;;;20.20;99.90;20.40;100230.00;;;;4937537;28;94049;-63
2022/08/20 04:18:22;;;;;;;11.15;8.75;;;20.20;99.90;20.40;100242.00;;;;4940581;28;93773;-65
2022/08/20 04:20:50;;;;;;;11.57;7.95;;;20.20;99.90;20.40;100232.00;;;;4944798;28;93145;-65
2022/08/20 04:23:17;;;;;;;10.60;8.50;;;20.20;99.90;20.40;100225.00;;;;4936348;28;93467;-65
2022/08/20 04:25:44;;;;;;;12.05;8.23;;;20.30;99.90;20.40;100223.00;;;;4939318;28;115899;-66
2022/08/20 04:28:15;;;;;;;12.43;8.40;;;20.30;99.90;20.40;100231.00;;;;4943263;28;92756;-65
2022/08/20 04:30:41;;;;;;;14.88;8.85;;;20.20;99.90;20.40;100230.00;;;;4938960;28;92923;-64
2022/08/20 04:33:09;;;;;;;12.43;9.15;;;20.30;99.90;20.40;100230.00;;;;4961957;28;107186;-64
2022/08/20 04:35:35;;;;;;;8.98;8.10;;;20.30;99.90;20.50;100234.00;;;;4942030;28;93080;-65
2022/08/20 04:38:05;;;;;;;10.57;8.27;;;20.30;99.90;20.50;100238.00;;;;4937440;28;121969;-65
2022/08/20 04:43:18;;;;;;;11.38;9.35;;;20.30;99.90;20.50;100234.00;;;;4946186;28;93975;-64
2022/08/20 04:45:45;;;;;;;11.40;9.25;;;20.30;99.90;20.50;100228.00;;;;4942985;28;93909;-64
2022/08/20 04:48:13;;;;;;;11.82;6.65;;;20.30;99.90;20.50;100227.00;;;;4945239;28;93753;-64
2022/08/20 04:50:42;;;;;;;8.52;7.55;;;20.30;99.90;20.50;100224.00;;;;4948304;28;92878;-65
2022/08/20 04:53:12;;;;;;;10.32;7.15;;;20.30;99.90;20.50;100221.00;;;;4950349;28;92797;-64
2022/08/20 04:55:44;;;;;;;10.85;7.45;;;20.30;99.90;20.50;100240.00;;;;4946567;28;113965;-65
2022/08/20 04:58:19;;;;;;;11.55;7.57;;;20.30;99.90;20.50;100237.00;;;;4947712;28;92898;-65
2022/08/20 05:00:48;;;;;;;13.30;8.20;;;20.40;99.90;20.60;100238.00;;;;4947186;28;92198;-65
2022/08/20 05:03:18;;;;;;;9.25;8.00;;;20.40;99.90;20.60;100243.00;;;;4942238;28;93110;-64
2022/08/20 05:05:44;;;;;;;9.82;6.85;;;20.40;99.90;20.70;100236.00;;;;4948156;28;93330;-65
2022/08/20 05:08:11;;;;;;;9.02;6.93;;;20.50;99.90;20.70;100247.00;;;;4947844;28;93806;-65
2022/08/20 05:10:39;;;;;;;7.78;6.80;;;20.60;99.90;20.80;100249.00;;;;4943038;28;92811;-65
2022/08/20 05:13:06;;;;;;;10.43;7.88;;;20.50;99.90;20.80;100249.00;;;;4939645;28;92926;-65
2022/08/20 05:15:33;;;;;;;9.73;7.22;;;20.60;99.90;20.80;100244.00;;;;4936895;28;93088;-64
2022/08/20 05:18:01;;;;;;;8.05;6.53;;;20.60;99.90;20.80;100251.00;;;;4944691;28;93744;-65
2022/08/20 05:20:30;;;;;;;8.77;6.63;;;20.60;99.90;20.80;100259.00;;;;4945311;28;92891;-64
2022/08/20 05:22:57;;;;;;;9.82;5.95;;;20.60;99.90;20.80;100260.00;;;;4941775;28;92924;-64
2022/08/20 05:25:23;;;;;;;6.10;5.50;;;20.60;99.90;20.80;100254.00;;;;4941432;28;92967;-65
2022/08/20 05:27:49;;;;;;;12.15;6.63;;;20.60;99.90;20.80;100251.00;;;;4948170;28;105601;-65
2022/08/20 05:30:14;;;;;;;8.63;6.57;;;20.60;99.90;20.80;100252.00;;;;4947814;28;100250;-65
2022/08/20 05:32:40;;;;;;;8.63;6.28;;;20.60;99.90;20.80;100256.00;;;;4940418;28;108961;-65
2022/08/20 05:35:09;;;;;;;9.98;7.00;;;20.60;99.90;20.90;100253.00;;;;4945528;28;124119;-64
2022/08/20 05:37:37;;;;;;;8.40;6.03;;;20.70;99.90;20.90;100250.00;;;;4938661;28;93516;-65
2022/08/20 05:40:10;;;;;;;14.27;6.60;;;20.70;99.90;20.90;100259.00;;;;4946928;28;92853;-64
2022/08/20 05:42:36;;;;;;;10.32;6.72;;;20.70;99.90;20.90;100266.00;;;;4944760;28;92753;-65
2022/08/20 05:45:04;;;;;;;6.28;5.68;;;20.80;99.90;20.90;100263.00;;;;4945856;28;92886;-64
2022/08/20 05:47:30;;;;;;;9.25;6.68;;;20.70;99.90;20.90;100254.00;;;;4942411;28;109299;-65
2022/08/20 05:49:56;;;;;;;8.60;6.60;;;20.70;99.90;20.90;100266.00;;;;4947865;28;92503;-65
2022/08/20 05:52:22;;;;;;;8.07;6.25;;;20.80;99.90;20.90;100258.00;;;;4948904;28;92992;-65
2022/08/20 05:54:48;;;;;;;9.00;7.53;;;20.70;99.90;20.90;100256.00;;;;4939964;28;92868;-64
2022/08/20 05:57:21;;;;;;;10.50;7.82;;;20.70;99.90;20.90;100261.00;;;;4940736;28;94171;-65
2022/08/20 05:59:47;;;;;;;10.52;7.03;;;20.70;99.90;20.90;100254.00;;;;4949906;28;93109;-65
2022/08/20 06:04:57;;;;;;;8.00;6.03;;;20.70;99.90;20.90;100262.00;;;;4947219;28;93429;-64
2022/08/20 06:07:23;;;;;;;9.93;6.45;;;20.80;99.90;21.00;100264.00;;;;4946205;28;109166;-65
2022/08/20 06:09:49;;;;;;;9.32;6.80;;;20.80;99.90;21.00;100268.00;;;;4941081;28;111417;-65
2022/08/20 06:12:15;;;;;;;7.53;6.70;;;20.80;99.90;21.00;100277.00;;;;4943014;28;101109;-64
2022/08/20 06:14:41;;;;;;;12.75;6.60;;;20.80;99.90;21.00;100269.00;;;;4934576;28;93065;-65
2022/08/20 06:17:11;;;;;;;9.07;6.60;;;20.80;99.90;21.10;100270.00;;;;4940377;28;103002;-64
2022/08/20 06:19:38;;;;;;;12.00;7.10;;;20.80;99.90;21.10;100272.00;;;;4946453;28;93303;-65
2022/08/20 06:22:05;;;;;;;9.18;6.18;;;20.90;99.90;21.10;100269.00;;;;4950607;28;93596;-65
2022/08/20 06:24:32;;;;;;;10.00;5.95;;;20.90;99.90;21.10;100277.00;;;;4942529;28;95047;-64
2022/08/20 06:27:00;;;;;;;10.80;6.40;;;21.00;99.90;21.20;100275.00;;;;4946223;28;120652;-64
2022/08/20 06:29:27;;;;;;;10.80;7.18;;;20.90;99.90;21.20;100277.00;;;;4946351;28;94607;-64
2022/08/20 06:31:53;;;;;;;10.95;6.28;;;21.00;99.90;21.20;100284.00;;;;4944051;28;92811;-65
2022/08/20 06:34:19;;;;;;;7.90;6.97;;;21.00;99.90;21.30;100290.00;;;;4938380;28;124073;-65
2022/08/20 06:36:46;;;;;;;9.57;6.82;;;21.00;99.90;21.30;100289.00;;;;4936984;28;117371;-65
2022/08/20 06:39:13;;;;;;;7.35;5.68;;;21.00;99.90;21.30;100293.00;;;;4941423;28;92051;-63
2022/08/20 06:41:40;;;;;;;11.90;7.25;;;21.10;99.90;21.30;100296.00;;;;4948456;28;100964;-65
2022/08/20 06:44:06;;;;;;;10.48;6.95;;;21.10;99.90;21.30;100302.00;;;;4935070;28;102532;-64
2022/08/20 06:46:34;;;;;;;8.63;6.47;;;21.10;99.90;21.30;100294.00;;;;4941473;28;94008;-62
2022/08/20 06:49:02;;;;;;;8.43;6.43;;;21.10;99.90;21.30;100300.00;;;;4945351;28;92792;-65
2022/08/20 06:51:28;;;;;;;10.25;7.57;;;21.10;99.90;21.30;100305.00;;;;4942387;28;93354;-63
2022/08/20 06:53:55;;;;;;;8.75;6.20;;;21.10;99.90;21.30;100306.00;;;;4939762;28;94527;-64
2022/08/20 06:56:21;;;;;;;8.48;5.90;;;21.10;99.90;21.30;100319.00;;;;4946955;28;93428;-64
2022/08/20 06:58:48;;;;;;;9.73;5.55;;;21.10;99.90;21.30;100317.00;;;;4946562;28;95618;-64
2022/08/20 07:01:14;;;;;;;9.73;6.57;;;21.10;99.90;21.30;100315.00;;;;4965988;28;92988;-63
2022/08/20 07:03:41;;;;;;;10.45;6.88;;;21.10;99.90;21.30;100310.00;;;;4946986;28;93465;-64
2022/08/20 07:06:07;;;;;;;13.65;9.18;;;21.10;99.90;21.30;100310.00;;;;4951335;28;92816;-64
2022/08/20 07:08:34;;;;;;;11.82;8.23;;;21.10;99.90;21.30;100313.00;;;;4941620;28;92798;-64
2022/08/20 07:11:00;;;;;;;8.48;7.43;;;21.20;99.90;21.30;100310.00;;;;4946664;28;93867;-64
2022/08/20 07:13:27;;;;;;;13.25;7.45;;;21.10;99.90;21.20;100315.00;;;;4948014;28;93445;-64
2022/08/20 07:15:53;;;;;;;10.02;7.63;;;21.00;99.90;21.30;100322.00;;;;4941052;28;93328;-64
2022/08/20 07:18:20;;;;;;;9.45;7.85;;;21.10;99.90;21.30;100312.00;;;;4947150;28;93556;-64
2022/08/20 07:20:46;;;;;;;9.52;7.78;;;21.00;99.90;21.20;100318.00;;;;4946856;28;93403;-64
2022/08/20 07:23:11;;;;;;;14.00;8.20;;;21.00;99.90;21.20;100315.00;;;;4941136;28;123406;-63
2022/08/20 07:25:40;;;;;;;12.07;7.80;;;21.00;99.90;21.20;100316.00;;;;4947596;28;93818;-64
2022/08/20 07:28:15;;;;;;;10.95;8.77;;;21.00;99.90;21.10;100308.00;;;;4941318;28;95742;-64
2022/08/20 07:33:28;;;;;;;11.43;8.05;;;20.90;99.90;20.90;100314.00;;;;4941915;28;93075;-65
2022/08/20 07:35:57;;;;;;;14.20;8.55;;;20.80;99.90;20.80;100318.00;;;;4938966;28;109733;-65
2022/08/20 07:38:25;;;;;;;13.00;9.07;;;20.70;99.90;20.70;100317.00;;;;4943141;28;93036;-65
2022/08/20 07:41:03;;;;;;;10.95;8.63;;;20.50;99.90;20.60;100323.00;;;;4948284;28;93085;-64
2022/08/20 07:43:30;;;;;;;12.85;10.48;;;20.50;99.90;20.50;100323.00;;;;4940246;28;93484;-63
2022/08/20 07:46:08;;;;;;;22.33;9.38;;;20.30;99.90;20.50;100325.00;;;;4943273;28;93455;-65
2022/08/20 07:48:38;;;;;;;13.13;9.45;;;20.30;99.90;20.40;100333.00;;;;4939387;28;92922;-64
2022/08/20 07:51:05;;;;;;;13.27;10.85;;;20.20;99.90;20.40;100338.00;;;;4947335;28;92777;-64
2022/08/20 07:53:37;;;;;;;16.25;11.32;;;20.20;99.90;20.30;100335.00;;;;4944124;28;92883;-64
2022/08/20 07:56:18;;;;;;;16.35;10.38;;;20.20;99.90;20.30;100335.00;;;;4939697;28;112495;-65
2022/08/20 07:58:49;;;;;;;12.50;9.75;;;20.20;99.90;20.30;100340.00;;;;4943620;28;92829;-64
2022/08/20 08:01:24;;;;;;;13.57;10.20;;;20.10;99.90;20.30;100338.00;;;;4943457;28;93688;-64
2022/08/20 08:03:50;;;;;;;15.32;11.00;;;20.10;99.90;20.30;100341.00;;;;4940887;28;93689;-64
2022/08/20 08:06:21;;;;;;;14.88;11.55;;;20.10;99.90;20.30;100338.00;;;;4943409;28;92898;-63
2022/08/20 08:08:47;;;;;;;13.40;11.50;;;20.30;99.90;20.30;100349.00;;;;4943828;28;103523;-64
2022/08/20 08:11:13;;;;;;;15.63;11.30;;;20.10;99.90;20.30;100351.00;;;;4945515;28;106732;-64
2022/08/20 08:13:40;;;;;;;21.85;13.88;;;20.20;99.90;20.30;100351.00;;;;4942149;28;122894;-63
2022/08/20 08:16:08;;;;;;;17.33;12.43;;;20.10;99.90;20.30;100360.00;;;;4939306;28;93393;-64
2022/08/20 08:18:49;;;;;;;16.02;11.55;;;20.10;99.90;20.30;100352.00;;;;4948071;28;91873;-64
2022/08/20 08:21:16;;;;;;;14.75;10.75;;;20.10;99.90;20.30;100355.00;;;;4940002;28;92733;-64
2022/08/20 08:23:43;;;;;;;20.27;12.80;;;20.10;99.90;20.30;100353.00;;;;4942816;28;94036;-64
2022/08/20 08:26:11;;;;;;;14.95;10.43;;;20.10;99.90;20.30;100351.00;;;;4942704;28;93940;-64
2022/08/20 08:28:38;;;;;;;16.63;12.35;;;20.10;99.90;20.20;100358.00;;;;4938572;28;92712;-64
2022/08/20 08:31:04;;;;;;;15.80;12.73;;;20.10;99.90;20.20;100358.00;;;;4943898;28;93265;-64
2022/08/20 08:33:31;;;;;;;16.50;11.38;;;20.10;99.90;20.20;100364.00;;;;4937719;28;107407;-64
2022/08/20 08:36:04;;;;;;;14.85;11.70;;;20.00;99.90;20.20;100372.00;;;;4938343;28;93933;-65
2022/08/20 08:38:36;;;;;;;16.90;11.52;;;20.00;99.90;20.20;100374.00;;;;4944456;28;92946;-64
2022/08/20 08:41:20;;;;;;;13.77;10.93;;;20.10;99.90;20.20;100374.00;;;;4939467;28;92869;-64
2022/08/20 08:43:51;;;;;;;15.27;11.85;;;20.00;99.90;20.20;100381.00;;;;4940317;28;92632;-64
2022/08/20 08:46:25;;;;;;;16.60;11.10;;;20.10;99.90;20.20;100376.00;;;;4941798;28;93255;-63
2022/08/20 08:48:55;;;;;;;13.50;12.07;;;20.10;99.90;20.20;100380.00;;;;4956953;28;98894;-65
2022/08/20 08:51:41;;;;;;;20.50;12.52;;;20.10;99.90;20.20;100386.00;;;;4941175;28;94003;-64
2022/08/20 08:54:15;;;;;;;16.33;10.55;;;20.00;99.90;20.20;100379.00;;;;4942316;28;97763;-64
2022/08/20 08:56:42;;;;;;;16.45;11.23;;;20.00;99.90;20.20;100390.00;;;;4939396;28;93716;-63
2022/08/20 08:59:09;;;;;;;16.25;11.52;;;20.00;99.90;20.20;100381.00;;;;4944095;28;93024;-64
2022/08/20 09:01:45;;;;;;;12.18;10.27;;;20.00;99.90;20.20;100381.00;;;;4945701;28;93134;-64
2022/08/20 09:04:13;;;;;;;17.63;11.75;;;20.00;99.90;20.30;100386.00;;;;4939541;28;93691;-63
2022/08/20 09:06:42;;;;;;;16.25;11.63;;;20.10;99.90;20.30;100391.00;;;;4945707;28;93660;-64
2022/08/20 09:09:17;;;;;;;17.35;11.82;;;20.10;99.90;20.30;100390.00;;;;4942722;28;92359;-64
2022/08/20 09:11:51;;;;;;;14.85;11.43;;;20.10;99.90;20.30;100407.00;;;;4944611;28;93183;-64
2022/08/20 09:14:17;;;;;;;16.55;11.60;;;20.10;99.90;20.30;100387.00;;;;4940158;28;93214;-64
2022/08/20 09:16:42;;;;;;;19.15;12.02;;;20.10;99.90;20.30;100404.00;;;;4941977;28;93846;-64
2022/08/20 09:19:08;;;;;;;16.98;12.40;;;20.10;99.90;20.30;100396.00;;;;4938114;28;93063;-63
2022/08/20 09:21:34;;;;;;;19.08;13.15;;;20.10;99.90;20.30;100400.00;;;;4941889;28;92849;-63
2022/08/20 09:23:59;;;;;;;18.50;13.77;;;20.20;99.90;20.30;100399.00;;;;4943557;28;122009;-64
2022/08/20 09:26:25;;;;;;;17.05;10.55;;;20.20;99.90;20.40;100397.00;;;;4937874;28;122865;-63
2022/08/20 09:28:51;;;;;;;15.77;11.27;;;20.20;99.90;20.40;100392.00;;;;4938793;28;102190;-64
2022/08/20 09:31:17;;;;;;;17.27;10.52;;;20.20;99.90;20.40;100395.00;;;;4941025;28;108198;-63
2022/08/20 09:33:42;;;;;;;19.60;12.80;;;20.30;99.90;20.50;100395.00;;;;4937471;28;93170;-63
2022/08/20 09:36:08;;;;;;;15.70;12.52;;;20.30;99.90;20.50;100403.00;;;;4938419;28;121990;-63
2022/08/20 09:38:34;;;;;;;13.75;11.45;;;20.30;99.90;20.50;100404.00;;;;4939686;28;112983;-63
2022/08/20 09:41:00;;;;;;;14.73;10.70;;;20.30;99.90;20.60;100406.00;;;;4940430;28;109731;-64
2022/08/20 09:43:25;;;;;;;16.08;11.20;;;20.40;99.90;20.60;100398.00;;;;4940306;28;94430;-64
2022/08/20 09:45:51;;;;;;;15.75;11.75;;;20.40;99.90;20.60;100393.00;;;;4938103;28;122105;-64
2022/08/20 09:48:17;;;;;;;15.15;12.32;;;20.40;99.90;20.70;100395.00;;;;4940244;28;93139;-64
2022/08/20 09:50:48;;;;;;;12.35;9.93;;;20.50;99.90;20.70;100404.00;;;;4940559;28;108430;-64
2022/08/20 09:53:14;;;;;;;14.43;11.38;;;20.50;99.90;20.80;100398.00;;;;4941810;28;93143;-63
2022/08/20 09:55:44;;;;;;;13.63;10.18;;;20.50;99.90;20.80;100399.00;;;;4941491;28;93089;-63
2022/08/20 09:58:25;;;;;;;17.63;11.13;;;20.60;99.90;20.80;100399.00;;;;4946058;28;92002;-64
2022/08/20 10:00:51;;;;;;;14.25;11.40;;;20.60;99.90;20.90;100396.00;;;;4940951;28;93185;-64
2022/08/20 10:03:17;;;;;;;15.57;12.02;;;20.70;99.90;20.90;100402.00;;;;4936127;28;93107;-64
2022/08/20 10:05:43;;;;;;;12.75;10.30;;;20.70;99.90;21.00;100407.00;;;;4935964;28;93859;-64
2022/08/20 10:08:11;;;;;;;12.90;10.32;;;20.80;99.90;21.00;100397.00;;;;4942347;28;92661;-63
2022/08/20 10:10:37;;;;;;;15.05;10.75;;;20.80;99.90;21.10;100411.00;;;;4934998;28;93024;-63
2022/08/20 10:13:03;;;;;;;16.08;11.05;;;20.80;99.90;21.10;100396.00;;;;4935266;28;122519;-64
2022/08/20 10:15:30;;;;;;;15.18;10.50;;;20.90;99.90;21.10;100396.00;;;;4939760;28;93091;-63
2022/08/20 10:17:58;;;;;;;12.23;9.73;;;20.90;99.90;21.20;100398.00;;;;4934748;28;93037;-62
2022/08/20 10:20:25;;;;;;;14.30;10.07;;;21.00;99.90;21.20;100397.00;;;;4938370;28;92798;-62
2022/08/20 10:22:51;;;;;;;13.48;9.95;;;21.00;99.90;21.20;100401.00;;;;4943707;28;93550;-63
2022/08/20 10:25:16;;;;;;;11.48;9.38;;;21.00;99.90;21.30;100396.00;;;;4935966;28;121921;-62
2022/08/20 10:27:43;;;;;;;14.75;11.35;;;21.00;99.90;21.30;100406.00;;;;4938996;28;110510;-62
2022/08/20 10:30:10;;;;;;;10.13;8.95;;;21.10;99.90;21.30;100405.00;;;;4939704;28;96493;-63
2022/08/20 10:32:36;;;;;;;13.85;8.20;;;21.10;99.90;21.40;100400.00;;;;4938352;28;95610;-62
2022/08/20 10:35:03;;;;;;;15.45;10.43;;;21.20;99.90;21.40;100403.00;;;;4939312;28;123607;-63
2022/08/20 10:37:28;;;;;;;12.82;9.20;;;21.20;99.90;21.40;100406.00;;;;4938827;28;92903;-63
2022/08/20 10:39:54;;;;;;;13.25;9.57;;;21.20;99.90;21.50;100409.00;;;;4937917;28;92934;-63
2022/08/20 10:42:20;;;;;;;12.93;10.52;;;21.30;99.90;21.60;100415.00;;;;4939949;28;108771;-64
2022/08/20 10:44:46;;;;;;;15.63;10.30;;;21.30;99.90;21.60;100409.00;;;;4941458;28;93210;-63
2022/08/20 10:47:14;;;;;;;12.95;8.88;;;21.40;99.90;21.60;100416.00;;;;4939421;28;113768;-63
2022/08/20 10:49:40;;;;;;;13.00;9.02;;;21.40;99.90;21.60;100410.00;;;;4943244;28;93636;-63
2022/08/20 10:52:06;;;;;;;11.02;7.80;;;21.40;99.90;21.60;100414.00;;;;4944090;28;123504;-63
2022/08/20 10:54:32;;;;;;;11.52;8.50;;;21.40;99.90;21.60;100420.00;;;;4944346;28;123137;-63